sensor_id;sensor_type;location;lat;lon;timestamp;P1;durP1;ratioP1;P2;durP2;ratioP2
51146;SDS011;37207;53.060;18.726;2022-09-27T00:01:05;155.00;;;27.20;;
51146;SDS011;37207;53.060;18.726;2022-09-27T00:03:36;227.70;;;28.00;;
51146;SDS011;37207;53.060;18.726;2022-09-27T00:08:37;244.70;;;26.20;;
51146;SDS011;37207;53.060;18.726;2022-09-27T00:11:05;238.20;;;25.50;;
51146;SDS011;37207;53.060;18.726;2022-09-27T00:13:56;142.20;;;22.40;;
51146;SDS011;37207;53.060;18.726;2022-09-27T00:16:29;133.00;;;22.80;;
51146;SDS011;37207;53.060;18.726;2022-09-27T00:18:58;150.20;;;22.10;;
51146;SDS011;37207;53.060;18.726;2022-09-27T00:21:29;158.70;;;22.20;;
51146;SDS011;37207;53.060;18.726;2022-09-27T00:23:57;297.60;;;23.00;;
51146;SDS011;37207;53.060;18.726;2022-09-27T00:26:25;299.80;;;22.50;;
51146;SDS011;37207;53.060;18.726;2022-09-27T00:28:53;370.40;;;23.50;;
51146;SDS011;37207;53.060;18.726;2022-09-27T00:31:25;334.40;;;23.40;;
51146;SDS011;37207;53.060;18.726;2022-09-27T00:34:18;246.10;;;20.80;;
51146;SDS011;37207;53.060;18.726;2022-09-27T00:37:06;175.40;;;20.40;;
51146;SDS011;37207;53.060;18.726;2022-09-27T00:39:34;158.00;;;19.30;;
51146;SDS011;37207;53.060;18.726;2022-09-27T00:42:02;127.60;;;18.10;;
51146;SDS011;37207;53.060;18.726;2022-09-27T00:47:03;92.50;;;18.30;;
51146;SDS011;37207;53.060;18.726;2022-09-27T00:49:33;73.10;;;18.40;;
51146;SDS011;37207;53.060;18.726;2022-09-27T00:55:19;98.90;;;19.80;;
51146;SDS011;37207;53.060;18.726;2022-09-27T00:57:52;30.00;;;18.80;;
51146;SDS011;37207;53.060;18.726;2022-09-27T01:00:20;37.20;;;20.10;;
51146;SDS011;37207;53.060;18.726;2022-09-27T01:02:48;55.00;;;20.80;;
51146;SDS011;37207;53.060;18.726;2022-09-27T01:05:19;160.00;;;22.40;;
51146;SDS011;37207;53.060;18.726;2022-09-27T01:07:50;51.40;;;18.60;;
51146;SDS011;37207;53.060;18.726;2022-09-27T01:10:18;81.60;;;21.00;;
51146;SDS011;37207;53.060;18.726;2022-09-27T01:12:55;95.20;;;19.80;;
51146;SDS011;37207;53.060;18.726;2022-09-27T01:18:15;44.80;;;20.10;;
51146;SDS011;37207;53.060;18.726;2022-09-27T01:23:47;47.50;;;20.70;;
51146;SDS011;37207;53.060;18.726;2022-09-27T01:37:53;361.70;;;25.50;;
51146;SDS011;37207;53.060;18.726;2022-09-27T01:43:45;218.50;;;21.70;;
51146;SDS011;37207;53.060;18.726;2022-09-27T01:46:26;106.20;;;18.80;;
51146;SDS011;37207;53.060;18.726;2022-09-27T01:49:35;82.00;;;19.70;;
51146;SDS011;37207;53.060;18.726;2022-09-27T01:52:08;111.90;;;21.40;;
51146;SDS011;37207;53.060;18.726;2022-09-27T01:54:43;119.90;;;21.90;;
51146;SDS011;37207;53.060;18.726;2022-09-27T01:57:26;99.50;;;20.20;;
51146;SDS011;37207;53.060;18.726;2022-09-27T02:00:05;20.90;;;17.90;;
51146;SDS011;37207;53.060;18.726;2022-09-27T02:02:47;37.80;;;19.10;;
51146;SDS011;37207;53.060;18.726;2022-09-27T02:05:36;105.50;;;21.00;;
51146;SDS011;37207;53.060;18.726;2022-09-27T02:08:47;83.50;;;21.80;;
51146;SDS011;37207;53.060;18.726;2022-09-27T02:11:33;101.00;;;22.90;;
51146;SDS011;37207;53.060;18.726;2022-09-27T02:25:54;242.70;;;20.90;;
51146;SDS011;37207;53.060;18.726;2022-09-27T02:31:03;195.50;;;18.50;;
51146;SDS011;37207;53.060;18.726;2022-09-27T02:33:36;153.20;;;17.90;;
51146;SDS011;37207;53.060;18.726;2022-09-27T02:36:09;88.00;;;16.30;;
51146;SDS011;37207;53.060;18.726;2022-09-27T02:38:41;169.10;;;18.00;;
51146;SDS011;37207;53.060;18.726;2022-09-27T02:41:14;169.50;;;18.70;;
51146;SDS011;37207;53.060;18.726;2022-09-27T02:43:52;267.30;;;19.80;;
51146;SDS011;37207;53.060;18.726;2022-09-27T02:55:11;302.10;;;18.50;;
51146;SDS011;37207;53.060;18.726;2022-09-27T03:01:21;299.80;;;19.30;;
51146;SDS011;37207;53.060;18.726;2022-09-27T03:06:37;197.60;;;18.30;;
51146;SDS011;37207;53.060;18.726;2022-09-27T03:09:16;216.80;;;19.20;;
51146;SDS011;37207;53.060;18.726;2022-09-27T03:11:49;165.80;;;18.80;;
51146;SDS011;37207;53.060;18.726;2022-09-27T03:14:17;158.20;;;19.00;;
51146;SDS011;37207;53.060;18.726;2022-09-27T03:17:04;170.80;;;18.20;;
51146;SDS011;37207;53.060;18.726;2022-09-27T03:19:51;175.70;;;18.80;;
51146;SDS011;37207;53.060;18.726;2022-09-27T03:22:47;173.50;;;19.50;;
51146;SDS011;37207;53.060;18.726;2022-09-27T03:25:16;102.30;;;18.70;;
51146;SDS011;37207;53.060;18.726;2022-09-27T03:27:45;151.50;;;19.10;;
51146;SDS011;37207;53.060;18.726;2022-09-27T03:30:13;103.20;;;17.60;;
51146;SDS011;37207;53.060;18.726;2022-09-27T03:32:44;225.50;;;19.90;;
51146;SDS011;37207;53.060;18.726;2022-09-27T03:35:33;181.70;;;19.80;;
51146;SDS011;37207;53.060;18.726;2022-09-27T03:38:01;251.20;;;20.80;;
51146;SDS011;37207;53.060;18.726;2022-09-27T03:40:28;128.80;;;19.70;;
51146;SDS011;37207;53.060;18.726;2022-09-27T03:42:56;122.90;;;19.50;;
51146;SDS011;37207;53.060;18.726;2022-09-27T03:45:22;97.80;;;19.20;;
51146;SDS011;37207;53.060;18.726;2022-09-27T03:47:50;87.90;;;18.60;;
51146;SDS011;37207;53.060;18.726;2022-09-27T03:50:23;59.80;;;18.60;;
51146;SDS011;37207;53.060;18.726;2022-09-27T03:52:53;70.90;;;17.30;;
51146;SDS011;37207;53.060;18.726;2022-09-27T03:55:24;67.30;;;19.00;;
51146;SDS011;37207;53.060;18.726;2022-09-27T03:57:55;67.30;;;19.40;;
51146;SDS011;37207;53.060;18.726;2022-09-27T04:00:27;51.30;;;21.40;;
51146;SDS011;37207;53.060;18.726;2022-09-27T04:02:58;47.00;;;20.90;;
51146;SDS011;37207;53.060;18.726;2022-09-27T04:05:26;57.30;;;20.30;;
51146;SDS011;37207;53.060;18.726;2022-09-27T04:08:11;50.90;;;19.70;;
51146;SDS011;37207;53.060;18.726;2022-09-27T04:10:40;38.70;;;19.20;;
51146;SDS011;37207;53.060;18.726;2022-09-27T04:13:08;58.90;;;21.50;;
51146;SDS011;37207;53.060;18.726;2022-09-27T04:15:41;56.10;;;20.90;;
51146;SDS011;37207;53.060;18.726;2022-09-27T04:18:27;54.90;;;21.90;;
51146;SDS011;37207;53.060;18.726;2022-09-27T04:21:15;39.80;;;22.50;;
51146;SDS011;37207;53.060;18.726;2022-09-27T04:23:48;49.80;;;20.20;;
51146;SDS011;37207;53.060;18.726;2022-09-27T04:26:16;25.60;;;20.50;;
51146;SDS011;37207;53.060;18.726;2022-09-27T04:28:49;54.00;;;19.90;;
51146;SDS011;37207;53.060;18.726;2022-09-27T04:31:17;55.10;;;19.90;;
51146;SDS011;37207;53.060;18.726;2022-09-27T04:34:16;59.40;;;19.20;;
51146;SDS011;37207;53.060;18.726;2022-09-27T04:36:44;42.40;;;19.60;;
51146;SDS011;37207;53.060;18.726;2022-09-27T04:39:14;79.20;;;21.90;;
51146;SDS011;37207;53.060;18.726;2022-09-27T04:41:44;110.90;;;22.10;;
51146;SDS011;37207;53.060;18.726;2022-09-27T04:44:12;68.80;;;21.90;;
51146;SDS011;37207;53.060;18.726;2022-09-27T04:46:42;107.40;;;20.60;;
51146;SDS011;37207;53.060;18.726;2022-09-27T04:49:10;60.50;;;21.70;;
51146;SDS011;37207;53.060;18.726;2022-09-27T04:51:37;87.90;;;21.70;;
51146;SDS011;37207;53.060;18.726;2022-09-27T04:54:05;79.70;;;19.70;;
51146;SDS011;37207;53.060;18.726;2022-09-27T04:56:34;69.60;;;22.10;;
51146;SDS011;37207;53.060;18.726;2022-09-27T04:59:02;43.60;;;20.80;;
51146;SDS011;37207;53.060;18.726;2022-09-27T05:01:30;67.00;;;21.40;;
51146;SDS011;37207;53.060;18.726;2022-09-27T05:04:15;85.90;;;21.20;;
51146;SDS011;37207;53.060;18.726;2022-09-27T05:06:50;70.00;;;21.10;;
51146;SDS011;37207;53.060;18.726;2022-09-27T05:09:30;55.70;;;22.50;;
51146;SDS011;37207;53.060;18.726;2022-09-27T05:11:58;62.70;;;22.50;;
51146;SDS011;37207;53.060;18.726;2022-09-27T05:14:34;61.40;;;22.30;;
51146;SDS011;37207;53.060;18.726;2022-09-27T05:17:08;59.00;;;22.30;;
51146;SDS011;37207;53.060;18.726;2022-09-27T05:19:54;50.50;;;22.50;;
51146;SDS011;37207;53.060;18.726;2022-09-27T05:22:40;47.10;;;22.80;;
51146;SDS011;37207;53.060;18.726;2022-09-27T05:25:08;40.90;;;23.30;;
51146;SDS011;37207;53.060;18.726;2022-09-27T05:27:35;32.00;;;23.60;;
51146;SDS011;37207;53.060;18.726;2022-09-27T05:30:02;49.00;;;21.90;;
51146;SDS011;37207;53.060;18.726;2022-09-27T05:32:43;65.30;;;23.80;;
51146;SDS011;37207;53.060;18.726;2022-09-27T05:35:26;66.70;;;23.80;;
51146;SDS011;37207;53.060;18.726;2022-09-27T05:37:54;40.00;;;24.30;;
51146;SDS011;37207;53.060;18.726;2022-09-27T05:40:23;69.70;;;23.30;;
51146;SDS011;37207;53.060;18.726;2022-09-27T05:42:52;52.30;;;22.90;;
51146;SDS011;37207;53.060;18.726;2022-09-27T05:45:21;29.10;;;23.00;;
51146;SDS011;37207;53.060;18.726;2022-09-27T05:47:56;41.60;;;21.80;;
51146;SDS011;37207;53.060;18.726;2022-09-27T05:50:24;29.00;;;21.50;;
51146;SDS011;37207;53.060;18.726;2022-09-27T05:52:55;38.40;;;18.80;;
51146;SDS011;37207;53.060;18.726;2022-09-27T05:55:23;63.50;;;18.30;;
51146;SDS011;37207;53.060;18.726;2022-09-27T05:57:54;60.00;;;17.80;;
51146;SDS011;37207;53.060;18.726;2022-09-27T06:00:52;52.70;;;17.80;;
51146;SDS011;37207;53.060;18.726;2022-09-27T06:03:39;36.80;;;18.90;;
51146;SDS011;37207;53.060;18.726;2022-09-27T06:06:21;27.20;;;18.00;;
51146;SDS011;37207;53.060;18.726;2022-09-27T06:08:53;34.70;;;19.40;;
51146;SDS011;37207;53.060;18.726;2022-09-27T06:11:21;36.50;;;19.80;;
51146;SDS011;37207;53.060;18.726;2022-09-27T06:13:50;19.70;;;18.20;;
51146;SDS011;37207;53.060;18.726;2022-09-27T06:16:17;23.70;;;18.30;;
51146;SDS011;37207;53.060;18.726;2022-09-27T06:18:45;22.10;;;18.70;;
51146;SDS011;37207;53.060;18.726;2022-09-27T06:21:13;40.00;;;19.10;;
51146;SDS011;37207;53.060;18.726;2022-09-27T06:23:46;26.40;;;18.80;;
51146;SDS011;37207;53.060;18.726;2022-09-27T06:26:18;19.30;;;17.50;;
51146;SDS011;37207;53.060;18.726;2022-09-27T06:29:08;27.80;;;17.70;;
51146;SDS011;37207;53.060;18.726;2022-09-27T06:32:01;18.30;;;16.60;;
51146;SDS011;37207;53.060;18.726;2022-09-27T06:34:42;18.80;;;17.40;;
51146;SDS011;37207;53.060;18.726;2022-09-27T06:37:14;19.20;;;17.50;;
51146;SDS011;37207;53.060;18.726;2022-09-27T06:42:36;19.30;;;17.90;;
51146;SDS011;37207;53.060;18.726;2022-09-27T06:45:18;21.90;;;20.20;;
51146;SDS011;37207;53.060;18.726;2022-09-27T06:48:08;21.60;;;19.90;;
51146;SDS011;37207;53.060;18.726;2022-09-27T06:50:48;20.50;;;19.00;;
51146;SDS011;37207;53.060;18.726;2022-09-27T06:53:15;21.40;;;19.80;;
51146;SDS011;37207;53.060;18.726;2022-09-27T06:55:45;22.10;;;19.90;;
51146;SDS011;37207;53.060;18.726;2022-09-27T06:58:12;19.90;;;18.40;;
51146;SDS011;37207;53.060;18.726;2022-09-27T07:01:16;21.20;;;19.50;;
51146;SDS011;37207;53.060;18.726;2022-09-27T07:04:02;19.40;;;17.60;;
51146;SDS011;37207;53.060;18.726;2022-09-27T07:07:00;19.70;;;18.00;;
51146;SDS011;37207;53.060;18.726;2022-09-27T07:09:34;19.70;;;18.20;;
51146;SDS011;37207;53.060;18.726;2022-09-27T07:12:05;20.90;;;18.80;;
51146;SDS011;37207;53.060;18.726;2022-09-27T07:14:32;21.30;;;19.70;;
51146;SDS011;37207;53.060;18.726;2022-09-27T07:17:01;20.20;;;18.90;;
51146;SDS011;37207;53.060;18.726;2022-09-27T07:19:36;20.30;;;18.90;;
51146;SDS011;37207;53.060;18.726;2022-09-27T07:22:03;19.60;;;18.00;;
51146;SDS011;37207;53.060;18.726;2022-09-27T07:24:30;21.10;;;19.30;;
51146;SDS011;37207;53.060;18.726;2022-09-27T07:26:58;19.20;;;17.70;;
51146;SDS011;37207;53.060;18.726;2022-09-27T07:29:26;20.70;;;18.90;;
51146;SDS011;37207;53.060;18.726;2022-09-27T07:31:53;19.40;;;17.80;;
51146;SDS011;37207;53.060;18.726;2022-09-27T07:34:20;17.90;;;16.40;;
51146;SDS011;37207;53.060;18.726;2022-09-27T07:36:48;16.50;;;15.40;;
51146;SDS011;37207;53.060;18.726;2022-09-27T07:39:15;15.20;;;14.30;;
51146;SDS011;37207;53.060;18.726;2022-09-27T07:41:42;15.40;;;14.20;;
51146;SDS011;37207;53.060;18.726;2022-09-27T07:44:11;14.50;;;13.50;;
51146;SDS011;37207;53.060;18.726;2022-09-27T07:46:51;14.30;;;13.30;;
51146;SDS011;37207;53.060;18.726;2022-09-27T07:49:22;14.10;;;13.20;;
51146;SDS011;37207;53.060;18.726;2022-09-27T07:52:03;13.30;;;12.40;;
51146;SDS011;37207;53.060;18.726;2022-09-27T07:54:41;12.50;;;11.70;;
51146;SDS011;37207;53.060;18.726;2022-09-27T07:57:25;12.50;;;11.70;;
51146;SDS011;37207;53.060;18.726;2022-09-27T07:59:54;12.40;;;11.50;;
51146;SDS011;37207;53.060;18.726;2022-09-27T08:02:22;13.00;;;11.90;;
51146;SDS011;37207;53.060;18.726;2022-09-27T08:04:51;13.40;;;12.20;;
51146;SDS011;37207;53.060;18.726;2022-09-27T08:07:19;13.30;;;12.30;;
51146;SDS011;37207;53.060;18.726;2022-09-27T08:09:50;14.40;;;13.40;;
51146;SDS011;37207;53.060;18.726;2022-09-27T08:12:18;14.10;;;13.20;;
51146;SDS011;37207;53.060;18.726;2022-09-27T08:14:47;14.40;;;13.10;;
51146;SDS011;37207;53.060;18.726;2022-09-27T08:17:15;14.40;;;13.10;;
51146;SDS011;37207;53.060;18.726;2022-09-27T08:20:01;14.30;;;13.10;;
51146;SDS011;37207;53.060;18.726;2022-09-27T08:22:46;15.30;;;14.30;;
51146;SDS011;37207;53.060;18.726;2022-09-27T08:25:25;15.00;;;13.20;;
51146;SDS011;37207;53.060;18.726;2022-09-27T08:28:08;13.80;;;12.90;;
51146;SDS011;37207;53.060;18.726;2022-09-27T08:30:40;15.20;;;14.00;;
51146;SDS011;37207;53.060;18.726;2022-09-27T08:33:08;15.20;;;14.20;;
51146;SDS011;37207;53.060;18.726;2022-09-27T08:35:35;15.00;;;13.90;;
51146;SDS011;37207;53.060;18.726;2022-09-27T08:38:02;15.60;;;14.40;;
51146;SDS011;37207;53.060;18.726;2022-09-27T08:46:23;15.90;;;14.70;;
51146;SDS011;37207;53.060;18.726;2022-09-27T08:48:57;15.30;;;12.90;;
51146;SDS011;37207;53.060;18.726;2022-09-27T08:51:33;14.40;;;13.30;;
51146;SDS011;37207;53.060;18.726;2022-09-27T08:54:07;13.10;;;11.90;;
51146;SDS011;37207;53.060;18.726;2022-09-27T08:56:40;12.70;;;11.80;;
51146;SDS011;37207;53.060;18.726;2022-09-27T08:59:15;12.20;;;11.30;;
51146;SDS011;37207;53.060;18.726;2022-09-27T09:01:49;12.80;;;11.60;;
51146;SDS011;37207;53.060;18.726;2022-09-27T09:04:30;9.20;;;8.50;;
51146;SDS011;37207;53.060;18.726;2022-09-27T09:07:06;14.00;;;8.70;;
51146;SDS011;37207;53.060;18.726;2022-09-27T09:09:43;8.90;;;8.20;;
51146;SDS011;37207;53.060;18.726;2022-09-27T09:35:09;12.80;;;11.70;;
51146;SDS011;37207;53.060;18.726;2022-09-27T09:37:52;13.70;;;12.80;;
51146;SDS011;37207;53.060;18.726;2022-09-27T09:45:50;14.90;;;13.70;;
51146;SDS011;37207;53.060;18.726;2022-09-27T09:53:56;15.00;;;13.00;;
51146;SDS011;37207;53.060;18.726;2022-09-27T09:56:37;13.90;;;12.90;;
51146;SDS011;37207;53.060;18.726;2022-09-27T09:59:25;11.60;;;10.40;;
51146;SDS011;37207;53.060;18.726;2022-09-27T10:02:53;13.60;;;12.60;;
51146;SDS011;37207;53.060;18.726;2022-09-27T10:05:17;13.40;;;12.30;;
51146;SDS011;37207;53.060;18.726;2022-09-27T10:07:47;14.40;;;13.20;;
51146;SDS011;37207;53.060;18.726;2022-09-27T10:10:17;15.60;;;14.30;;
51146;SDS011;37207;53.060;18.726;2022-09-27T10:12:46;14.90;;;13.40;;
51146;SDS011;37207;53.060;18.726;2022-09-27T10:15:22;14.60;;;13.50;;
51146;SDS011;37207;53.060;18.726;2022-09-27T10:17:53;13.70;;;12.50;;
51146;SDS011;37207;53.060;18.726;2022-09-27T10:25:59;12.50;;;11.60;;
51146;SDS011;37207;53.060;18.726;2022-09-27T10:28:40;13.20;;;12.20;;
51146;SDS011;37207;53.060;18.726;2022-09-27T10:31:11;13.30;;;12.40;;
51146;SDS011;37207;53.060;18.726;2022-09-27T10:33:59;14.60;;;13.30;;
51146;SDS011;37207;53.060;18.726;2022-09-27T10:36:34;13.90;;;12.90;;
51146;SDS011;37207;53.060;18.726;2022-09-27T10:39:03;13.50;;;12.30;;
51146;SDS011;37207;53.060;18.726;2022-09-27T10:41:37;12.80;;;11.90;;
51146;SDS011;37207;53.060;18.726;2022-09-27T10:44:23;12.20;;;11.10;;
51146;SDS011;37207;53.060;18.726;2022-09-27T10:47:08;11.00;;;10.20;;
51146;SDS011;37207;53.060;18.726;2022-09-27T10:49:47;11.30;;;10.50;;
51146;SDS011;37207;53.060;18.726;2022-09-27T10:52:27;12.30;;;11.20;;
51146;SDS011;37207;53.060;18.726;2022-09-27T10:54:56;13.10;;;12.20;;
51146;SDS011;37207;53.060;18.726;2022-09-27T10:57:27;12.60;;;11.60;;
51146;SDS011;37207;53.060;18.726;2022-09-27T11:00:04;12.80;;;11.90;;
51146;SDS011;37207;53.060;18.726;2022-09-27T11:02:34;12.50;;;11.70;;
51146;SDS011;37207;53.060;18.726;2022-09-27T11:07:58;13.70;;;12.60;;
51146;SDS011;37207;53.060;18.726;2022-09-27T11:10:42;14.90;;;13.90;;
51146;SDS011;37207;53.060;18.726;2022-09-27T11:18:49;14.50;;;13.50;;
51146;SDS011;37207;53.060;18.726;2022-09-27T11:21:41;15.60;;;14.30;;
51146;SDS011;37207;53.060;18.726;2022-09-27T11:24:26;15.30;;;14.00;;
51146;SDS011;37207;53.060;18.726;2022-09-27T11:27:05;16.00;;;14.70;;
51146;SDS011;37207;53.060;18.726;2022-09-27T11:38:17;16.20;;;14.70;;
51146;SDS011;37207;53.060;18.726;2022-09-27T11:44:00;15.20;;;14.20;;
51146;SDS011;37207;53.060;18.726;2022-09-27T11:46:35;16.10;;;14.80;;
51146;SDS011;37207;53.060;18.726;2022-09-27T11:51:52;15.30;;;14.30;;
51146;SDS011;37207;53.060;18.726;2022-09-27T12:08:45;15.40;;;14.00;;
51146;SDS011;37207;53.060;18.726;2022-09-27T12:17:29;16.40;;;15.20;;
51146;SDS011;37207;53.060;18.726;2022-09-27T12:20:13;15.50;;;14.50;;
51146;SDS011;37207;53.060;18.726;2022-09-27T12:23:52;16.40;;;15.10;;
51146;SDS011;37207;53.060;18.726;2022-09-27T12:26:37;14.60;;;13.70;;
51146;SDS011;37207;53.060;18.726;2022-09-27T12:29:25;18.60;;;17.00;;
51146;SDS011;37207;53.060;18.726;2022-09-27T12:37:14;17.40;;;16.10;;
51146;SDS011;37207;53.060;18.726;2022-09-27T12:45:26;16.50;;;15.10;;
51146;SDS011;37207;53.060;18.726;2022-09-27T12:48:35;16.60;;;15.30;;
51146;SDS011;37207;53.060;18.726;2022-09-27T12:51:18;18.40;;;16.60;;
51146;SDS011;37207;53.060;18.726;2022-09-27T12:56:36;17.90;;;16.40;;
51146;SDS011;37207;53.060;18.726;2022-09-27T13:02:17;18.80;;;16.90;;
51146;SDS011;37207;53.060;18.726;2022-09-27T13:10:21;21.20;;;19.10;;
51146;SDS011;37207;53.060;18.726;2022-09-27T13:13:00;22.20;;;19.10;;
51146;SDS011;37207;53.060;18.726;2022-09-27T13:15:33;21.60;;;19.90;;
51146;SDS011;37207;53.060;18.726;2022-09-27T13:18:05;22.00;;;20.00;;
51146;SDS011;37207;53.060;18.726;2022-09-27T13:21:13;23.00;;;21.10;;
51146;SDS011;37207;53.060;18.726;2022-09-27T13:33:39;27.80;;;22.90;;
51146;SDS011;37207;53.060;18.726;2022-09-27T13:38:37;25.20;;;22.90;;
51146;SDS011;37207;53.060;18.726;2022-09-27T13:41:14;24.50;;;22.50;;
51146;SDS011;37207;53.060;18.726;2022-09-27T13:44:05;23.70;;;21.30;;
51146;SDS011;37207;53.060;18.726;2022-09-27T13:46:50;23.40;;;21.00;;
51146;SDS011;37207;53.060;18.726;2022-09-27T13:49:27;21.70;;;19.80;;
51146;SDS011;37207;53.060;18.726;2022-09-27T13:58:13;22.10;;;20.00;;
51146;SDS011;37207;53.060;18.726;2022-09-27T14:00:42;21.60;;;19.60;;
51146;SDS011;37207;53.060;18.726;2022-09-27T14:03:16;24.20;;;22.20;;
51146;SDS011;37207;53.060;18.726;2022-09-27T14:05:57;25.40;;;23.20;;
51146;SDS011;37207;53.060;18.726;2022-09-27T14:08:37;26.30;;;24.00;;
51146;SDS011;37207;53.060;18.726;2022-09-27T14:11:33;26.70;;;24.00;;
51146;SDS011;37207;53.060;18.726;2022-09-27T14:14:06;25.20;;;22.60;;
51146;SDS011;37207;53.060;18.726;2022-09-27T14:16:46;24.50;;;22.30;;
51146;SDS011;37207;53.060;18.726;2022-09-27T14:19:14;24.60;;;22.20;;
51146;SDS011;37207;53.060;18.726;2022-09-27T14:21:45;24.10;;;21.90;;
51146;SDS011;37207;53.060;18.726;2022-09-27T14:24:28;25.00;;;21.50;;
51146;SDS011;37207;53.060;18.726;2022-09-27T14:29:46;23.30;;;20.90;;
51146;SDS011;37207;53.060;18.726;2022-09-27T14:32:19;20.30;;;18.80;;
51146;SDS011;37207;53.060;18.726;2022-09-27T14:35:15;21.50;;;19.60;;
51146;SDS011;37207;53.060;18.726;2022-09-27T14:38:15;20.10;;;18.60;;
51146;SDS011;37207;53.060;18.726;2022-09-27T14:43:25;19.20;;;17.10;;
51146;SDS011;37207;53.060;18.726;2022-09-27T14:46:02;19.90;;;18.20;;
51146;SDS011;37207;53.060;18.726;2022-09-27T14:48:36;18.90;;;17.30;;
51146;SDS011;37207;53.060;18.726;2022-09-27T14:53:39;18.30;;;16.80;;
51146;SDS011;37207;53.060;18.726;2022-09-27T14:56:19;20.80;;;19.30;;
51146;SDS011;37207;53.060;18.726;2022-09-27T14:58:52;19.60;;;17.80;;
51146;SDS011;37207;53.060;18.726;2022-09-27T15:01:28;17.60;;;16.20;;
51146;SDS011;37207;53.060;18.726;2022-09-27T15:04:01;17.50;;;15.60;;
51146;SDS011;37207;53.060;18.726;2022-09-27T15:06:31;18.70;;;16.80;;
51146;SDS011;37207;53.060;18.726;2022-09-27T15:09:02;18.70;;;17.30;;
51146;SDS011;37207;53.060;18.726;2022-09-27T15:11:30;18.80;;;17.20;;
51146;SDS011;37207;53.060;18.726;2022-09-27T15:14:00;21.90;;;19.90;;
51146;SDS011;37207;53.060;18.726;2022-09-27T15:16:30;20.90;;;19.20;;
51146;SDS011;37207;53.060;18.726;2022-09-27T15:19:00;21.20;;;19.60;;
51146;SDS011;37207;53.060;18.726;2022-09-27T15:21:47;23.00;;;20.60;;
51146;SDS011;37207;53.060;18.726;2022-09-27T15:27:13;24.10;;;21.90;;
51146;SDS011;37207;53.060;18.726;2022-09-27T15:29:52;21.90;;;20.10;;
51146;SDS011;37207;53.060;18.726;2022-09-27T15:32:22;26.10;;;22.40;;
51146;SDS011;37207;53.060;18.726;2022-09-27T15:34:51;25.90;;;23.20;;
51146;SDS011;37207;53.060;18.726;2022-09-27T15:42:57;25.80;;;22.80;;
51146;SDS011;37207;53.060;18.726;2022-09-27T15:45:31;25.40;;;23.20;;
51146;SDS011;37207;53.060;18.726;2022-09-27T15:48:06;32.70;;;29.10;;
51146;SDS011;37207;53.060;18.726;2022-09-27T15:50:43;29.90;;;27.00;;
51146;SDS011;37207;53.060;18.726;2022-09-27T15:53:10;25.80;;;23.40;;
51146;SDS011;37207;53.060;18.726;2022-09-27T15:55:41;23.60;;;21.50;;
51146;SDS011;37207;53.060;18.726;2022-09-27T15:58:14;25.00;;;22.70;;
51146;SDS011;37207;53.060;18.726;2022-09-27T16:00:55;23.80;;;21.50;;
51146;SDS011;37207;53.060;18.726;2022-09-27T16:03:24;23.80;;;21.70;;
51146;SDS011;37207;53.060;18.726;2022-09-27T16:05:52;23.00;;;21.10;;
51146;SDS011;37207;53.060;18.726;2022-09-27T16:08:22;24.80;;;22.80;;
51146;SDS011;37207;53.060;18.726;2022-09-27T16:10:50;24.20;;;21.90;;
51146;SDS011;37207;53.060;18.726;2022-09-27T16:13:20;18.60;;;16.90;;
51146;SDS011;37207;53.060;18.726;2022-09-27T16:15:50;11.20;;;10.30;;
51146;SDS011;37207;53.060;18.726;2022-09-27T16:18:18;8.00;;;7.30;;
51146;SDS011;37207;53.060;18.726;2022-09-27T16:20:48;16.80;;;15.30;;
51146;SDS011;37207;53.060;18.726;2022-09-27T16:23:15;11.20;;;10.10;;
51146;SDS011;37207;53.060;18.726;2022-09-27T16:25:43;11.70;;;9.10;;
51146;SDS011;37207;53.060;18.726;2022-09-27T16:28:11;8.50;;;7.70;;
51146;SDS011;37207;53.060;18.726;2022-09-27T16:30:38;6.60;;;4.50;;
51146;SDS011;37207;53.060;18.726;2022-09-27T16:33:05;5.20;;;2.70;;
51146;SDS011;37207;53.060;18.726;2022-09-27T16:35:32;3.70;;;3.00;;
51146;SDS011;37207;53.060;18.726;2022-09-27T16:37:59;2.80;;;2.60;;
51146;SDS011;37207;53.060;18.726;2022-09-27T16:40:26;3.80;;;3.10;;
51146;SDS011;37207;53.060;18.726;2022-09-27T16:42:54;177.30;;;140.40;;
51146;SDS011;37207;53.060;18.726;2022-09-27T16:45:21;115.20;;;72.60;;
51146;SDS011;37207;53.060;18.726;2022-09-27T16:47:49;200.70;;;63.20;;
51146;SDS011;37207;53.060;18.726;2022-09-27T16:50:16;45.80;;;15.60;;
51146;SDS011;37207;53.060;18.726;2022-09-27T16:53:04;6.80;;;4.50;;
51146;SDS011;37207;53.060;18.726;2022-09-27T16:55:31;3.60;;;2.80;;
51146;SDS011;37207;53.060;18.726;2022-09-27T16:57:58;2.70;;;2.20;;
51146;SDS011;37207;53.060;18.726;2022-09-27T17:00:29;141.50;;;35.40;;
51146;SDS011;37207;53.060;18.726;2022-09-27T17:02:59;125.20;;;29.50;;
51146;SDS011;37207;53.060;18.726;2022-09-27T17:05:26;15.80;;;6.90;;
51146;SDS011;37207;53.060;18.726;2022-09-27T17:07:55;132.50;;;69.90;;
51146;SDS011;37207;53.060;18.726;2022-09-27T17:10:23;25.90;;;16.20;;
51146;SDS011;37207;53.060;18.726;2022-09-27T17:12:50;10.40;;;8.90;;
51146;SDS011;37207;53.060;18.726;2022-09-27T17:15:17;7.30;;;6.60;;
51146;SDS011;37207;53.060;18.726;2022-09-27T17:17:47;7.50;;;6.90;;
51146;SDS011;37207;53.060;18.726;2022-09-27T17:20:15;12.70;;;10.60;;
51146;SDS011;37207;53.060;18.726;2022-09-27T17:22:43;9.20;;;8.30;;
51146;SDS011;37207;53.060;18.726;2022-09-27T17:25:10;9.30;;;8.50;;
51146;SDS011;37207;53.060;18.726;2022-09-27T17:27:37;12.00;;;9.00;;
51146;SDS011;37207;53.060;18.726;2022-09-27T17:30:04;9.50;;;7.40;;
51146;SDS011;37207;53.060;18.726;2022-09-27T17:32:32;15.20;;;14.10;;
51146;SDS011;37207;53.060;18.726;2022-09-27T17:35:00;134.10;;;37.10;;
51146;SDS011;37207;53.060;18.726;2022-09-27T17:37:28;188.00;;;70.80;;
51146;SDS011;37207;53.060;18.726;2022-09-27T17:39:55;252.20;;;69.50;;
51146;SDS011;37207;53.060;18.726;2022-09-27T17:42:23;99.00;;;30.30;;
51146;SDS011;37207;53.060;18.726;2022-09-27T17:44:50;63.40;;;20.10;;
51146;SDS011;37207;53.060;18.726;2022-09-27T17:47:28;168.80;;;72.00;;
51146;SDS011;37207;53.060;18.726;2022-09-27T17:50:16;79.50;;;45.00;;
51146;SDS011;37207;53.060;18.726;2022-09-27T17:52:56;69.80;;;36.80;;
51146;SDS011;37207;53.060;18.726;2022-09-27T17:57:53;8.70;;;7.80;;
51146;SDS011;37207;53.060;18.726;2022-09-27T18:00:21;7.60;;;5.60;;
51146;SDS011;37207;53.060;18.726;2022-09-27T18:02:48;13.40;;;10.10;;
51146;SDS011;37207;53.060;18.726;2022-09-27T18:05:15;26.40;;;23.70;;
51146;SDS011;37207;53.060;18.726;2022-09-27T18:07:46;27.90;;;20.10;;
51146;SDS011;37207;53.060;18.726;2022-09-27T18:10:13;25.20;;;17.70;;
51146;SDS011;37207;53.060;18.726;2022-09-27T18:12:43;17.50;;;15.20;;
51146;SDS011;37207;53.060;18.726;2022-09-27T18:15:10;17.20;;;12.40;;
51146;SDS011;37207;53.060;18.726;2022-09-27T18:17:38;10.00;;;8.90;;
51146;SDS011;37207;53.060;18.726;2022-09-27T18:20:05;9.10;;;8.40;;